Time;durP1;ratioP1;P1;durP2;ratioP2;P2;SDS_P1;SDS_P2;PMS_P1;PMS_P2;Temp;Humidity;BMP_temperature;BMP_pressure;BME280_temperature;BME280_humidity;BME280_pressure;Samples;Min_cycle;Max_cycle;Signal;HPM_P1;HPM_P2
2023/06/12 00:00:06;;;;;;;3.03;2.00;;;;;;;;;;5099184;28;20420;-61
2023/06/12 00:02:33;;;;;;;1.50;1.20;;;;;;;;;;5096470;28;20032;-61
2023/06/12 00:05:00;;;;;;;4.97;2.42;;;;;;;;;;5091709;28;20448;-61
2023/06/12 00:07:28;;;;;;;2.72;1.90;;;;;;;;;;5091023;28;20047;-61
2023/06/12 00:09:55;;;;;;;2.65;1.77;;;;;;;;;;5087470;28;20036;-61
2023/06/12 00:12:22;;;;;;;3.10;2.13;;;;;;;;;;5087365;28;20020;-61
2023/06/12 00:14:49;;;;;;;2.35;1.83;;;;;;;;;;5094396;28;20060;-61
2023/06/12 00:17:16;;;;;;;5.05;2.20;;;;;;;;;;5103141;28;20024;-61
2023/06/12 00:19:42;;;;;;;3.22;2.03;;;;;;;;;;5095133;28;20020;-60
2023/06/12 00:22:09;;;;;;;3.13;2.10;;;;;;;;;;5090884;28;20016;-61
2023/06/12 00:24:36;;;;;;;2.67;1.77;;;;;;;;;;5091707;28;20475;-60
2023/06/12 00:27:03;;;;;;;13.95;2.55;;;;;;;;;;5088856;28;20028;-61
2023/06/12 00:29:29;;;;;;;4.00;2.10;;;;;;;;;;5088198;28;20390;-61
2023/06/12 00:31:56;;;;;;;7.97;2.33;;;;;;;;;;5088139;28;20051;-61
2023/06/12 00:34:23;;;;;;;2.35;1.77;;;;;;;;;;5088123;28;20024;-61
2023/06/12 00:36:50;;;;;;;4.43;2.50;;;;;;;;;;5082245;28;20036;-61
2023/06/12 00:39:17;;;;;;;2.72;2.08;;;;;;;;;;5092133;28;20053;-61
2023/06/12 00:41:44;;;;;;;3.72;2.17;;;;;;;;;;5071885;28;20094;-61
2023/06/12 00:44:11;;;;;;;3.42;2.22;;;;;;;;;;5071846;28;20028;-61
2023/06/12 00:46:38;;;;;;;2.45;1.67;;;;;;;;;;5093248;28;20047;-60
2023/06/12 00:49:04;;;;;;;3.00;1.88;;;;;;;;;;5088278;28;20028;-60
2023/06/12 00:51:32;;;;;;;3.00;2.33;;;;;;;;;;5087442;28;20016;-60
2023/06/12 00:54:00;;;;;;;2.67;1.63;;;;;;;;;;5086526;28;20034;-61
2023/06/12 00:56:27;;;;;;;3.97;2.08;;;;;;;;;;5087906;28;20024;-63
2023/06/12 00:58:55;;;;;;;2.83;2.05;;;;;;;;;;5100066;28;20027;-62
2023/06/12 01:01:25;;;;;;;3.42;2.25;;;;;;;;;;5089374;28;20029;-61
2023/06/12 01:03:57;;;;;;;5.53;2.15;;;;;;;;;;5090092;28;20558;-62
2023/06/12 01:06:31;;;;;;;5.05;2.80;;;;;;;;;;5091854;28;20406;-61
2023/06/12 01:09:03;;;;;;;4.30;2.47;;;;;;;;;;5107611;28;20028;-61
2023/06/12 01:11:32;;;;;;;3.30;1.73;;;;;;;;;;5095605;28;20094;-61
2023/06/12 01:13:59;;;;;;;3.50;2.15;;;;;;;;;;5086511;28;20032;-61
2023/06/12 01:16:27;;;;;;;4.95;2.50;;;;;;;;;;5084331;28;20130;-60
2023/06/12 01:18:55;;;;;;;4.15;2.53;;;;;;;;;;5097813;28;20036;-61
2023/06/12 01:21:23;;;;;;;4.28;2.60;;;;;;;;;;5093011;28;20478;-60
2023/06/12 01:23:59;;;;;;;5.40;2.65;;;;;;;;;;5095524;28;20040;-61
2023/06/12 01:26:26;;;;;;;10.50;2.17;;;;;;;;;;5095808;28;20022;-61
2023/06/12 01:29:13;;;;;;;5.32;2.72;;;;;;;;;;5101706;28;20093;-61
2023/06/12 01:31:56;;;;;;;4.70;2.42;;;;;;;;;;5097875;28;20115;-61
2023/06/12 01:34:31;;;;;;;3.75;2.65;;;;;;;;;;5088098;28;20367;-60
2023/06/12 01:37:13;;;;;;;3.78;2.28;;;;;;;;;;5089953;28;20043;-61
2023/06/12 01:39:49;;;;;;;3.65;2.25;;;;;;;;;;5090736;28;20028;-60
2023/06/12 01:42:16;;;;;;;3.00;2.35;;;;;;;;;;5088740;28;20499;-61
2023/06/12 01:44:42;;;;;;;5.85;2.22;;;;;;;;;;5093690;28;20028;-60
2023/06/12 01:47:09;;;;;;;6.28;2.90;;;;;;;;;;5107637;28;20032;-60
2023/06/12 01:49:36;;;;;;;3.00;1.80;;;;;;;;;;5111674;28;20050;-60
2023/06/12 01:52:03;;;;;;;10.35;2.55;;;;;;;;;;5100729;28;20375;-60
2023/06/12 01:54:33;;;;;;;4.40;2.40;;;;;;;;;;5096500;28;20028;-60
2023/06/12 01:57:01;;;;;;;4.15;2.20;;;;;;;;;;5079280;28;20485;-60
2023/06/12 01:59:27;;;;;;;6.40;2.35;;;;;;;;;;5092637;28;20578;-60
2023/06/12 02:01:54;;;;;;;2.70;1.95;;;;;;;;;;5096829;28;20035;-62
2023/06/12 02:04:21;;;;;;;3.13;2.10;;;;;;;;;;5104271;28;20096;-60
2023/06/12 02:06:48;;;;;;;6.10;1.98;;;;;;;;;;5112568;28;20038;-60
2023/06/12 02:09:15;;;;;;;7.72;3.00;;;;;;;;;;5074427;28;20052;-60
2023/06/12 02:11:42;;;;;;;3.70;2.30;;;;;;;;;;5074654;28;20028;-60
2023/06/12 02:14:10;;;;;;;3.38;2.30;;;;;;;;;;5112233;28;20031;-60
2023/06/12 02:16:36;;;;;;;4.50;2.95;;;;;;;;;;5104695;28;20020;-60
2023/06/12 02:19:03;;;;;;;4.18;2.45;;;;;;;;;;5091348;28;20039;-59
2023/06/12 02:21:30;;;;;;;4.10;2.70;;;;;;;;;;5097041;28;20032;-60
2023/06/12 02:23:57;;;;;;;4.25;2.53;;;;;;;;;;5109455;28;20090;-60
2023/06/12 02:26:23;;;;;;;5.88;3.17;;;;;;;;;;5106323;28;20474;-60
2023/06/12 02:29:09;;;;;;;6.10;3.08;;;;;;;;;;5097619;28;20058;-60
2023/06/12 02:31:36;;;;;;;4.65;2.95;;;;;;;;;;5074518;28;20025;-60
2023/06/12 02:34:03;;;;;;;2.50;2.15;;;;;;;;;;5086324;28;20058;-60
2023/06/12 02:36:30;;;;;;;4.53;3.03;;;;;;;;;;5094707;28;20028;-60
2023/06/12 02:38:57;;;;;;;4.47;2.67;;;;;;;;;;5095537;28;20023;-60
2023/06/12 02:41:25;;;;;;;8.57;2.93;;;;;;;;;;5071380;28;20651;-60
2023/06/12 02:43:52;;;;;;;3.10;2.10;;;;;;;;;;5089242;28;20470;-60
2023/06/12 02:46:19;;;;;;;5.97;2.43;;;;;;;;;;5095487;28;20436;-60
2023/06/12 02:48:46;;;;;;;5.20;3.13;;;;;;;;;;5088661;28;20082;-60
2023/06/12 02:51:13;;;;;;;6.07;3.10;;;;;;;;;;5081486;28;20028;-61
2023/06/12 02:53:40;;;;;;;6.13;3.00;;;;;;;;;;5086239;28;20470;-60
2023/06/12 02:56:06;;;;;;;4.10;2.47;;;;;;;;;;5091914;28;20616;-61
2023/06/12 02:58:34;;;;;;;3.93;2.67;;;;;;;;;;5094352;28;20463;-60
2023/06/12 03:01:04;;;;;;;3.90;2.23;;;;;;;;;;5092164;28;20114;-61
2023/06/12 03:03:31;;;;;;;11.57;2.77;;;;;;;;;;5080684;28;20106;-61
2023/06/12 03:05:57;;;;;;;6.13;3.20;;;;;;;;;;5089376;28;20088;-62
2023/06/12 03:08:24;;;;;;;4.07;2.80;;;;;;;;;;5076220;28;20465;-60
2023/06/12 03:10:51;;;;;;;4.10;2.83;;;;;;;;;;5092489;28;20028;-61
2023/06/12 03:13:18;;;;;;;4.50;2.80;;;;;;;;;;5099317;28;20024;-61
2023/06/12 03:15:45;;;;;;;27.50;3.37;;;;;;;;;;5107993;28;20020;-61
2023/06/12 03:18:11;;;;;;;7.13;2.57;;;;;;;;;;5111982;28;20394;-61
2023/06/12 03:20:38;;;;;;;3.27;2.10;;;;;;;;;;5101310;28;20024;-61
2023/06/12 03:23:06;;;;;;;2.20;1.87;;;;;;;;;;5110270;28;20559;-60
2023/06/12 03:25:32;;;;;;;4.40;3.07;;;;;;;;;;5113211;28;20020;-61
2023/06/12 03:27:59;;;;;;;2.93;2.33;;;;;;;;;;5089903;28;20461;-60
2023/06/12 03:30:26;;;;;;;5.33;3.47;;;;;;;;;;5088504;28;20035;-61
2023/06/12 03:32:56;;;;;;;7.57;2.50;;;;;;;;;;5089184;28;20028;-60
2023/06/12 03:35:23;;;;;;;4.10;2.67;;;;;;;;;;5106705;28;20028;-60
2023/06/12 03:37:50;;;;;;;3.80;2.30;;;;;;;;;;5096020;28;20028;-60
2023/06/12 03:40:18;;;;;;;4.13;2.60;;;;;;;;;;5093081;28;20043;-61
2023/06/12 03:42:45;;;;;;;4.80;2.80;;;;;;;;;;5103490;28;20039;-61
2023/06/12 03:45:12;;;;;;;3.53;2.23;;;;;;;;;;5100343;28;20040;-60
2023/06/12 03:47:39;;;;;;;16.73;2.03;;;;;;;;;;5072671;28;20451;-60
2023/06/12 03:50:10;;;;;;;6.10;2.97;;;;;;;;;;5073888;28;20016;-61
2023/06/12 03:52:36;;;;;;;4.87;2.83;;;;;;;;;;5089593;28;20394;-61
2023/06/12 03:55:03;;;;;;;4.23;2.83;;;;;;;;;;5091355;28;20043;-60
2023/06/12 03:57:30;;;;;;;11.83;3.60;;;;;;;;;;5108227;28;20020;-61
2023/06/12 03:59:57;;;;;;;19.10;2.83;;;;;;;;;;5108295;28;20096;-60
2023/06/12 04:02:24;;;;;;;2.87;2.07;;;;;;;;;;5092979;28;20425;-60
2023/06/12 04:04:51;;;;;;;4.13;2.30;;;;;;;;;;5097488;28;20043;-62
2023/06/12 04:07:18;;;;;;;2.37;1.77;;;;;;;;;;5093518;28;20467;-60
2023/06/12 04:09:45;;;;;;;9.80;3.23;;;;;;;;;;5092677;28;20028;-61
2023/06/12 04:12:12;;;;;;;6.83;3.00;;;;;;;;;;5093462;28;20036;-60
2023/06/12 04:14:39;;;;;;;7.83;2.23;;;;;;;;;;5091798;28;20047;-60
2023/06/12 04:17:06;;;;;;;3.83;2.63;;;;;;;;;;5087889;28;20316;-60
2023/06/12 04:19:33;;;;;;;7.90;2.53;;;;;;;;;;5087687;28;20024;-60
2023/06/12 04:22:01;;;;;;;4.73;1.90;;;;;;;;;;5105019;28;20019;-60
2023/06/12 04:24:30;;;;;;;2.97;2.07;;;;;;;;;;5099631;28;20044;-60
2023/06/12 04:27:01;;;;;;;5.30;2.50;;;;;;;;;;5092520;28;20085;-60
2023/06/12 04:29:29;;;;;;;3.57;2.20;;;;;;;;;;5093680;28;20375;-60
2023/06/12 04:31:57;;;;;;;3.27;2.60;;;;;;;;;;5092411;28;20088;-61
2023/06/12 04:34:24;;;;;;;4.83;2.70;;;;;;;;;;5100048;28;20378;-61
2023/06/12 04:36:52;;;;;;;3.70;2.47;;;;;;;;;;5107280;28;20028;-60
2023/06/12 04:39:19;;;;;;;4.77;2.70;;;;;;;;;;5105685;28;20023;-60
2023/06/12 04:41:47;;;;;;;3.67;2.60;;;;;;;;;;5107702;28;20039;-61
2023/06/12 04:44:14;;;;;;;5.50;2.80;;;;;;;;;;5080170;28;20066;-61
2023/06/12 04:46:41;;;;;;;4.33;2.97;;;;;;;;;;5106817;28;20019;-60
2023/06/12 04:49:08;;;;;;;3.07;2.27;;;;;;;;;;5106568;28;20038;-60
2023/06/12 04:51:35;;;;;;;7.57;2.87;;;;;;;;;;5099862;28;20038;-60
2023/06/12 04:54:02;;;;;;;4.73;2.47;;;;;;;;;;5103524;28;20023;-60
2023/06/12 04:56:31;;;;;;;7.63;3.27;;;;;;;;;;5109329;28;20500;-59
2023/06/12 04:58:58;;;;;;;3.70;2.33;;;;;;;;;;5105154;28;20032;-60
2023/06/12 05:01:25;;;;;;;3.33;2.40;;;;;;;;;;5098509;28;20391;-61
2023/06/12 05:03:52;;;;;;;3.57;2.50;;;;;;;;;;5089157;28;20064;-60
2023/06/12 05:06:20;;;;;;;7.30;2.70;;;;;;;;;;5096452;28;20254;-60
2023/06/12 05:08:47;;;;;;;7.63;2.87;;;;;;;;;;5091561;28;20028;-60
2023/06/12 05:11:13;;;;;;;12.97;3.37;;;;;;;;;;5078339;28;20031;-60
2023/06/12 05:13:40;;;;;;;3.73;2.37;;;;;;;;;;5112189;28;20063;-60
2023/06/12 05:16:07;;;;;;;2.77;2.00;;;;;;;;;;5108670;28;20512;-60
2023/06/12 05:18:34;;;;;;;3.53;2.57;;;;;;;;;;5094298;28;20459;-60
2023/06/12 05:21:01;;;;;;;2.40;1.57;;;;;;;;;;5092241;28;20027;-60
2023/06/12 05:23:28;;;;;;;5.30;3.17;;;;;;;;;;5107240;28;20028;-60
2023/06/12 05:25:54;;;;;;;4.80;2.90;;;;;;;;;;5104478;28;20370;-61
2023/06/12 05:28:21;;;;;;;6.43;2.80;;;;;;;;;;5086943;28;20042;-60
2023/06/12 05:30:48;;;;;;;3.97;2.57;;;;;;;;;;5092412;28;20028;-60
2023/06/12 05:33:16;;;;;;;4.87;3.13;;;;;;;;;;5110425;28;20036;-61
2023/06/12 05:35:43;;;;;;;3.30;2.37;;;;;;;;;;5093829;28;20051;-60
2023/06/12 05:38:10;;;;;;;8.93;2.53;;;;;;;;;;5092491;28;20028;-59
2023/06/12 05:40:37;;;;;;;4.97;2.70;;;;;;;;;;5098840;28;20085;-60
2023/06/12 05:43:04;;;;;;;4.27;2.43;;;;;;;;;;5091590;28;20154;-60
2023/06/12 05:45:31;;;;;;;7.67;2.80;;;;;;;;;;5082253;28;20029;-60
2023/06/12 05:47:57;;;;;;;3.23;2.37;;;;;;;;;;5079531;28;20036;-60
2023/06/12 05:50:24;;;;;;;5.80;2.60;;;;;;;;;;5085280;28;20020;-60
2023/06/12 05:52:52;;;;;;;3.70;2.03;;;;;;;;;;5087196;28;20423;-60
2023/06/12 05:55:19;;;;;;;3.93;2.67;;;;;;;;;;5105824;28;20020;-61
2023/06/12 05:57:45;;;;;;;3.67;2.43;;;;;;;;;;5106803;28;20054;-60
2023/06/12 06:00:13;;;;;;;4.40;2.03;;;;;;;;;;5091164;28;20024;-60
2023/06/12 06:02:42;;;;;;;3.67;2.63;;;;;;;;;;5094100;28;20052;-59
2023/06/12 06:05:12;;;;;;;5.10;3.10;;;;;;;;;;5091774;28;20048;-60
2023/06/12 06:07:39;;;;;;;4.43;2.50;;;;;;;;;;5089718;28;20024;-62
2023/06/12 06:10:06;;;;;;;3.97;2.87;;;;;;;;;;5106918;28;20475;-60
2023/06/12 06:12:33;;;;;;;4.90;2.73;;;;;;;;;;5109682;28;20024;-60
2023/06/12 06:15:00;;;;;;;4.03;2.77;;;;;;;;;;5111844;28;20098;-59
2023/06/12 06:17:27;;;;;;;2.93;2.17;;;;;;;;;;5115074;28;20047;-60
2023/06/12 06:19:54;;;;;;;5.00;3.27;;;;;;;;;;5101697;28;20378;-59
2023/06/12 06:22:24;;;;;;;3.03;2.23;;;;;;;;;;5094850;28;20059;-60
2023/06/12 06:24:51;;;;;;;9.50;2.33;;;;;;;;;;5094653;28;20036;-59
2023/06/12 06:27:18;;;;;;;4.00;2.43;;;;;;;;;;5091878;28;20078;-60
2023/06/12 06:29:44;;;;;;;2.83;2.17;;;;;;;;;;5091023;28;20051;-60
2023/06/12 06:32:11;;;;;;;5.43;2.80;;;;;;;;;;5088841;28;20024;-60
2023/06/12 06:34:38;;;;;;;5.13;2.77;;;;;;;;;;5088954;28;20055;-60
2023/06/12 06:37:05;;;;;;;5.63;3.37;;;;;;;;;;5090755;28;20020;-59
2023/06/12 06:39:31;;;;;;;9.73;2.53;;;;;;;;;;5097716;28;20107;-60
2023/06/12 06:41:58;;;;;;;7.57;2.87;;;;;;;;;;5114825;28;20020;-59
2023/06/12 06:44:25;;;;;;;7.87;3.13;;;;;;;;;;5114649;28;20035;-60
2023/06/12 06:46:52;;;;;;;5.87;2.33;;;;;;;;;;5094550;28;20065;-59
2023/06/12 06:49:18;;;;;;;2.87;2.17;;;;;;;;;;5092561;28;20032;-60
2023/06/12 06:51:45;;;;;;;3.70;2.73;;;;;;;;;;5090205;28;20038;-60
2023/06/12 06:54:12;;;;;;;6.90;2.70;;;;;;;;;;5088842;28;20078;-60
2023/06/12 06:56:39;;;;;;;4.60;2.43;;;;;;;;;;5088833;28;20035;-60
2023/06/12 06:59:05;;;;;;;4.13;2.80;;;;;;;;;;5089241;28;20034;-60
2023/06/12 07:01:33;;;;;;;3.87;2.57;;;;;;;;;;5089480;28;20507;-59
2023/06/12 07:04:00;;;;;;;5.47;2.50;;;;;;;;;;5114530;28;20378;-60
2023/06/12 07:06:27;;;;;;;3.70;2.40;;;;;;;;;;5114336;28;20409;-59
2023/06/12 07:08:54;;;;;;;4.87;3.03;;;;;;;;;;5113617;28;20020;-60
2023/06/12 07:11:20;;;;;;;4.87;3.07;;;;;;;;;;5111349;28;20369;-59
2023/06/12 07:13:47;;;;;;;3.90;2.67;;;;;;;;;;5107493;28;20042;-60
2023/06/12 07:16:14;;;;;;;5.07;3.47;;;;;;;;;;5108893;28;20081;-60
2023/06/12 07:18:41;;;;;;;6.57;2.00;;;;;;;;;;5108837;28;20024;-60
2023/06/12 07:21:07;;;;;;;5.90;2.90;;;;;;;;;;5104840;28;20481;-60
2023/06/12 07:23:34;;;;;;;3.63;2.30;;;;;;;;;;5093545;28;20020;-60
2023/06/12 07:26:01;;;;;;;3.73;2.23;;;;;;;;;;5093585;28;20374;-59
2023/06/12 07:28:28;;;;;;;4.27;2.63;;;;;;;;;;5093173;28;20020;-60
2023/06/12 07:30:55;;;;;;;5.63;2.70;;;;;;;;;;5093683;28;20027;-60
2023/06/12 07:33:21;;;;;;;4.00;2.63;;;;;;;;;;5094781;28;20073;-60
2023/06/12 07:35:48;;;;;;;3.33;2.77;;;;;;;;;;5088208;28;20035;-59
2023/06/12 07:38:15;;;;;;;11.23;2.73;;;;;;;;;;5088156;28;20028;-60
2023/06/12 07:40:41;;;;;;;3.10;1.80;;;;;;;;;;5087937;28;20062;-60
2023/06/12 07:43:08;;;;;;;4.57;2.77;;;;;;;;;;5089248;28;20036;-60
2023/06/12 07:45:35;;;;;;;5.50;2.30;;;;;;;;;;5082110;28;20484;-60
2023/06/12 07:48:02;;;;;;;5.43;3.13;;;;;;;;;;5072884;28;20017;-60
2023/06/12 07:50:28;;;;;;;3.53;2.73;;;;;;;;;;5072863;28;20113;-60
2023/06/12 07:52:55;;;;;;;7.10;2.50;;;;;;;;;;5084502;28;20027;-60
2023/06/12 07:55:22;;;;;;;6.33;2.67;;;;;;;;;;5093010;28;20099;-60
2023/06/12 07:57:50;;;;;;;4.80;3.47;;;;;;;;;;5088808;28;20048;-60
2023/06/12 08:00:17;;;;;;;5.67;3.23;;;;;;;;;;5087439;28;20391;-60
2023/06/12 08:02:45;;;;;;;3.97;2.23;;;;;;;;;;5087022;28;20447;-61
2023/06/12 08:05:11;;;;;;;4.90;3.03;;;;;;;;;;5107544;28;20039;-60
2023/06/12 08:07:38;;;;;;;4.63;3.27;;;;;;;;;;5111002;28;20032;-60
2023/06/12 08:10:07;;;;;;;5.83;3.20;;;;;;;;;;5112986;28;20424;-60
2023/06/12 08:12:34;;;;;;;6.27;3.03;;;;;;;;;;5113170;28;20027;-59
2023/06/12 08:15:02;;;;;;;3.20;2.40;;;;;;;;;;5110713;28;20092;-60
2023/06/12 08:17:29;;;;;;;3.87;2.83;;;;;;;;;;5113080;28;20031;-60
2023/06/12 08:19:56;;;;;;;7.23;3.30;;;;;;;;;;5109081;28;20382;-60
2023/06/12 08:22:23;;;;;;;3.07;2.30;;;;;;;;;;5107584;28;20024;-60
2023/06/12 08:24:50;;;;;;;2.83;2.13;;;;;;;;;;5096473;28;20126;-60
2023/06/12 08:27:17;;;;;;;15.97;3.13;;;;;;;;;;5087265;28;20024;-60
2023/06/12 08:29:43;;;;;;;3.50;2.20;;;;;;;;;;5089652;28;20023;-59
2023/06/12 08:32:10;;;;;;;10.47;3.20;;;;;;;;;;5092329;28;20096;-59
2023/06/12 08:34:37;;;;;;;3.13;2.23;;;;;;;;;;5093961;28;20420;-60
2023/06/12 08:37:04;;;;;;;4.70;2.90;;;;;;;;;;5092280;28;20024;-60
2023/06/12 08:39:31;;;;;;;7.40;3.33;;;;;;;;;;5092042;28;20467;-60
2023/06/12 08:42:00;;;;;;;3.33;2.37;;;;;;;;;;5089558;28;20044;-59
2023/06/12 08:44:27;;;;;;;3.57;2.53;;;;;;;;;;5086889;28;20044;-61
2023/06/12 08:46:56;;;;;;;4.53;2.97;;;;;;;;;;5104340;28;20043;-60
2023/06/12 08:49:23;;;;;;;5.03;3.00;;;;;;;;;;5107229;28;20438;-61
2023/06/12 08:51:50;;;;;;;4.90;3.40;;;;;;;;;;5108930;28;20030;-60
2023/06/12 08:54:18;;;;;;;3.97;2.50;;;;;;;;;;5111939;28;20040;-60
2023/06/12 08:56:46;;;;;;;5.93;3.20;;;;;;;;;;5110271;28;20030;-60
2023/06/12 08:59:13;;;;;;;4.60;3.10;;;;;;;;;;5112312;28;20149;-60
2023/06/12 09:01:40;;;;;;;3.97;2.83;;;;;;;;;;5112417;28;20051;-60
2023/06/12 09:04:19;;;;;;;12.13;2.63;;;;;;;;;;5110356;28;20028;-60
2023/06/12 09:06:47;;;;;;;5.53;3.87;;;;;;;;;;5106846;28;20040;-59
2023/06/12 09:09:14;;;;;;;9.90;3.43;;;;;;;;;;5106206;28;20061;-60
2023/06/12 09:11:41;;;;;;;8.67;3.53;;;;;;;;;;5107111;28;20023;-60
2023/06/12 09:14:08;;;;;;;10.37;3.40;;;;;;;;;;5107962;28;20039;-60
2023/06/12 09:16:35;;;;;;;3.77;3.17;;;;;;;;;;5109938;28;20119;-59
2023/06/12 09:19:03;;;;;;;4.80;3.03;;;;;;;;;;5112133;28;20106;-60
2023/06/12 09:21:30;;;;;;;4.53;3.20;;;;;;;;;;5112242;28;20035;-59
2023/06/12 09:23:57;;;;;;;13.97;3.77;;;;;;;;;;5112167;28;20107;-60
2023/06/12 09:26:24;;;;;;;11.37;4.43;;;;;;;;;;5107478;28;20016;-59
2023/06/12 09:28:51;;;;;;;4.30;3.13;;;;;;;;;;5104869;28;20569;-60
2023/06/12 09:31:18;;;;;;;8.23;3.10;;;;;;;;;;5106748;28;20502;-60
2023/06/12 09:33:45;;;;;;;6.60;3.87;;;;;;;;;;5106819;28;20592;-60
2023/06/12 09:36:13;;;;;;;4.67;3.57;;;;;;;;;;5107685;28;20382;-60
2023/06/12 09:38:40;;;;;;;5.93;3.73;;;;;;;;;;5098439;28;20020;-59
2023/06/12 09:41:08;;;;;;;7.27;3.83;;;;;;;;;;5095609;28;20058;-59
2023/06/12 09:43:35;;;;;;;4.10;3.30;;;;;;;;;;5094803;28;20077;-59
2023/06/12 09:46:03;;;;;;;3.10;2.53;;;;;;;;;;5082372;28;20033;-60
2023/06/12 09:48:37;;;;;;;3.83;2.80;;;;;;;;;;5087289;28;20122;-60
2023/06/12 09:51:05;;;;;;;9.77;4.07;;;;;;;;;;5090222;28;20489;-59
2023/06/12 09:53:36;;;;;;;4.77;3.10;;;;;;;;;;5089968;28;20471;-60
2023/06/12 09:56:05;;;;;;;4.07;2.97;;;;;;;;;;5089926;28;20047;-60
2023/06/12 09:58:33;;;;;;;3.90;3.33;;;;;;;;;;5091036;28;20028;-60
2023/06/12 10:01:01;;;;;;;5.47;2.60;;;;;;;;;;5095153;28;20059;-59
2023/06/12 10:03:28;;;;;;;3.83;2.90;;;;;;;;;;5095170;28;20027;-60
2023/06/12 10:05:55;;;;;;;9.67;3.70;;;;;;;;;;5095217;28;20065;-60
2023/06/12 10:08:22;;;;;;;5.67;3.70;;;;;;;;;;5096531;28;20027;-60
2023/06/12 10:10:49;;;;;;;6.30;3.40;;;;;;;;;;5094521;28;20024;-60
2023/06/12 10:13:17;;;;;;;5.97;3.97;;;;;;;;;;5089441;28;20043;-59
2023/06/12 10:15:44;;;;;;;5.63;3.17;;;;;;;;;;5089410;28;20068;-60
2023/06/12 10:18:12;;;;;;;5.77;3.73;;;;;;;;;;5089407;28;20089;-60
2023/06/12 10:20:40;;;;;;;3.80;2.90;;;;;;;;;;5090659;28;20125;-60
2023/06/12 10:23:07;;;;;;;4.93;3.47;;;;;;;;;;5094738;28;20095;-59
2023/06/12 10:25:34;;;;;;;7.07;3.47;;;;;;;;;;5094694;28;20036;-60
2023/06/12 10:28:02;;;;;;;5.00;3.60;;;;;;;;;;5094790;28;20031;-60
2023/06/12 10:30:30;;;;;;;5.27;3.40;;;;;;;;;;5096086;28;20162;-60
2023/06/12 10:33:08;;;;;;;6.77;4.27;;;;;;;;;;5094619;28;20032;-60
2023/06/12 10:35:35;;;;;;;7.33;3.37;;;;;;;;;;5089157;28;20118;-59
2023/06/12 10:38:03;;;;;;;7.90;3.47;;;;;;;;;;5089083;28;20039;-60
2023/06/12 10:40:31;;;;;;;6.80;3.53;;;;;;;;;;5090565;28;20026;-60
2023/06/12 10:43:04;;;;;;;11.93;3.60;;;;;;;;;;5089018;28;20094;-60
2023/06/12 10:45:32;;;;;;;5.47;3.23;;;;;;;;;;5085312;28;20487;-60
2023/06/12 10:48:08;;;;;;;4.10;3.03;;;;;;;;;;5073829;28;20475;-60
2023/06/12 10:50:44;;;;;;;5.43;3.63;;;;;;;;;;5065860;28;20024;-59
2023/06/12 10:53:13;;;;;;;5.27;4.00;;;;;;;;;;5094091;28;20020;-60
2023/06/12 10:55:40;;;;;;;6.13;3.50;;;;;;;;;;5093517;28;20027;-59
2023/06/12 10:58:12;;;;;;;4.27;3.07;;;;;;;;;;5088891;28;20012;-59
2023/06/12 11:00:48;;;;;;;5.17;3.47;;;;;;;;;;5091221;28;21400;-60
2023/06/12 11:03:19;;;;;;;5.00;3.73;;;;;;;;;;5109091;28;20526;-60
2023/06/12 11:05:47;;;;;;;6.30;3.83;;;;;;;;;;5109105;28;20110;-60
2023/06/12 11:08:14;;;;;;;7.50;3.93;;;;;;;;;;5113930;28;20020;-59
2023/06/12 11:10:41;;;;;;;4.63;3.37;;;;;;;;;;5113379;28;20027;-61
2023/06/12 11:13:08;;;;;;;5.87;4.27;;;;;;;;;;5112643;28;20043;-60
2023/06/12 11:15:50;;;;;;;5.90;3.60;;;;;;;;;;5114290;28;20026;-59
2023/06/12 11:18:16;;;;;;;5.67;3.40;;;;;;;;;;5113282;28;20041;-59
2023/06/12 11:20:43;;;;;;;6.37;4.20;;;;;;;;;;5108618;28;20033;-60
2023/06/12 11:23:10;;;;;;;5.33;3.57;;;;;;;;;;5106041;28;20031;-60
2023/06/12 11:25:44;;;;;;;6.33;4.27;;;;;;;;;;5108407;28;20097;-59
2023/06/12 11:28:15;;;;;;;9.53;3.33;;;;;;;;;;5090034;28;20023;-60
2023/06/12 11:30:46;;;;;;;4.10;2.93;;;;;;;;;;5113765;28;20030;-60
2023/06/12 11:33:14;;;;;;;7.80;4.07;;;;;;;;;;5099730;28;20427;-59
2023/06/12 11:35:41;;;;;;;11.27;4.03;;;;;;;;;;5093188;28;20020;-59
2023/06/12 11:38:09;;;;;;;3.93;2.93;;;;;;;;;;5093383;28;20020;-59
2023/06/12 11:40:36;;;;;;;5.80;3.70;;;;;;;;;;5092556;28;20074;-60
2023/06/12 11:43:03;;;;;;;8.07;3.77;;;;;;;;;;5089364;28;20479;-59
2023/06/12 11:45:31;;;;;;;6.90;3.83;;;;;;;;;;5079108;28;20105;-61
2023/06/12 12:00:58;;;;;;;6.17;4.17;;;;;;;;;;5053104;27;2273304;-59
2023/06/12 12:03:26;;;;;;;6.03;3.80;;;;;;;;;;5122454;27;20047;-58
2023/06/12 12:05:53;;;;;;;5.70;3.87;;;;;;;;;;5125446;27;20084;-58
2023/06/12 12:08:25;;;;;;;4.97;3.67;;;;;;;;;;5140971;27;20073;-59
2023/06/12 12:10:52;;;;;;;8.03;3.90;;;;;;;;;;5103831;28;20051;-59
2023/06/12 12:13:19;;;;;;;6.47;4.07;;;;;;;;;;5108395;28;20026;-58
2023/06/12 12:15:46;;;;;;;6.10;4.67;;;;;;;;;;5109670;28;20020;-58
2023/06/12 12:18:13;;;;;;;9.87;4.93;;;;;;;;;;5123853;27;20047;-58
2023/06/12 12:20:40;;;;;;;19.73;4.63;;;;;;;;;;5129794;28;20029;-59
2023/06/12 12:23:13;;;;;;;6.93;4.67;;;;;;;;;;5129834;27;20481;-58
2023/06/12 12:25:41;;;;;;;6.10;4.57;;;;;;;;;;5124559;27;20024;-59
2023/06/12 12:28:07;;;;;;;7.43;4.80;;;;;;;;;;5131906;27;20050;-59
2023/06/12 12:30:34;;;;;;;4.43;3.10;;;;;;;;;;5144797;27;20094;-59
2023/06/12 12:33:01;;;;;;;6.63;3.87;;;;;;;;;;5144676;27;20434;-59
2023/06/12 12:35:28;;;;;;;5.87;4.20;;;;;;;;;;5148785;27;20376;-58
2023/06/12 12:37:56;;;;;;;7.57;4.33;;;;;;;;;;5147920;27;20573;-58
2023/06/12 12:40:23;;;;;;;6.53;3.87;;;;;;;;;;5149749;27;20076;-58
2023/06/12 12:42:51;;;;;;;7.37;4.60;;;;;;;;;;5149905;27;20045;-58
2023/06/12 12:45:18;;;;;;;4.80;3.67;;;;;;;;;;5146406;27;20029;-59
2023/06/12 12:47:48;;;;;;;12.70;5.10;;;;;;;;;;5135118;27;20023;-61
2023/06/12 12:50:17;;;;;;;8.03;5.03;;;;;;;;;;5139418;27;20121;-59
2023/06/12 12:52:44;;;;;;;4.57;3.73;;;;;;;;;;5144095;27;20546;-60
2023/06/12 12:55:11;;;;;;;4.60;3.40;;;;;;;;;;5128772;27;20029;-60
2023/06/12 12:57:42;;;;;;;6.87;4.23;;;;;;;;;;5138711;27;20031;-59
2023/06/12 13:00:10;;;;;;;5.47;4.30;;;;;;;;;;5129618;27;20104;-59
2023/06/12 13:02:37;;;;;;;8.90;3.83;;;;;;;;;;5134452;27;20027;-59
2023/06/12 13:05:04;;;;;;;10.27;4.67;;;;;;;;;;5133723;27;20023;-59
2023/06/12 13:07:33;;;;;;;5.93;4.60;;;;;;;;;;5115264;27;20034;-58
2023/06/12 13:10:03;;;;;;;23.93;4.73;;;;;;;;;;5112361;27;20688;-58
2023/06/12 13:12:30;;;;;;;10.87;5.10;;;;;;;;;;5118380;27;20027;-58
2023/06/12 13:14:57;;;;;;;14.10;5.80;;;;;;;;;;5113998;27;20024;-58
2023/06/12 13:17:24;;;;;;;6.53;4.13;;;;;;;;;;5128017;27;20471;-60
2023/06/12 13:19:51;;;;;;;7.27;4.77;;;;;;;;;;5133318;27;20026;-58
2023/06/12 13:22:18;;;;;;;6.27;3.80;;;;;;;;;;5133033;27;20117;-58
2023/06/12 13:24:45;;;;;;;7.93;4.47;;;;;;;;;;5115227;27;20385;-59
2023/06/12 13:27:12;;;;;;;8.40;4.77;;;;;;;;;;5127978;27;20469;-58
2023/06/12 13:29:39;;;;;;;8.07;4.93;;;;;;;;;;5131561;27;20101;-59
2023/06/12 13:32:06;;;;;;;9.10;5.87;;;;;;;;;;5111062;27;20043;-58
2023/06/12 13:34:33;;;;;;;5.80;4.00;;;;;;;;;;5107477;28;20107;-58
2023/06/12 13:37:00;;;;;;;7.90;4.57;;;;;;;;;;5108174;28;20024;-60
2023/06/12 13:39:27;;;;;;;5.20;3.97;;;;;;;;;;5109228;28;20035;-59
2023/06/12 13:41:55;;;;;;;8.40;3.90;;;;;;;;;;5112924;27;20016;-59
2023/06/12 13:44:22;;;;;;;6.53;4.13;;;;;;;;;;5112773;28;20464;-59
2023/06/12 13:46:49;;;;;;;6.57;3.30;;;;;;;;;;5114280;28;20062;-59
2023/06/12 13:49:16;;;;;;;5.97;4.23;;;;;;;;;;5114026;28;20040;-59
2023/06/12 13:51:42;;;;;;;6.77;3.97;;;;;;;;;;5115986;27;20043;-59
2023/06/12 13:54:09;;;;;;;7.33;4.10;;;;;;;;;;5114173;28;20077;-60
2023/06/12 13:56:38;;;;;;;7.83;4.67;;;;;;;;;;5111670;28;20042;-60
2023/06/12 13:59:05;;;;;;;6.27;3.87;;;;;;;;;;5109422;28;20481;-59
2023/06/12 14:01:32;;;;;;;8.93;5.90;;;;;;;;;;5109156;27;20058;-59
2023/06/12 14:04:00;;;;;;;10.40;5.47;;;;;;;;;;5109539;27;20077;-60
2023/06/12 14:06:27;;;;;;;7.37;5.47;;;;;;;;;;5109151;28;20031;-59
2023/06/12 14:08:55;;;;;;;20.27;6.43;;;;;;;;;;5111918;28;20038;-60
2023/06/12 14:11:22;;;;;;;6.97;4.43;;;;;;;;;;5113762;28;20027;-60
2023/06/12 14:13:52;;;;;;;4.67;3.47;;;;;;;;;;5114614;27;20038;-60
2023/06/12 14:16:20;;;;;;;13.27;6.53;;;;;;;;;;5114056;28;20055;-60
2023/06/12 14:18:47;;;;;;;9.83;5.40;;;;;;;;;;5113822;28;20051;-59
2023/06/12 14:21:15;;;;;;;8.90;6.13;;;;;;;;;;5111482;28;20116;-59
2023/06/12 14:23:46;;;;;;;11.30;6.23;;;;;;;;;;5119217;27;20028;-60
2023/06/12 14:26:13;;;;;;;6.67;4.43;;;;;;;;;;5129378;27;20038;-60
2023/06/12 14:28:43;;;;;;;8.37;5.10;;;;;;;;;;5129319;27;20031;-60
2023/06/12 14:31:10;;;;;;;10.50;5.67;;;;;;;;;;5129516;27;20023;-60
2023/06/12 14:33:37;;;;;;;7.27;5.30;;;;;;;;;;5124790;27;20038;-60
2023/06/12 14:36:05;;;;;;;16.53;5.03;;;;;;;;;;5113959;28;20449;-60
2023/06/12 14:38:32;;;;;;;10.47;4.40;;;;;;;;;;5113492;28;20480;-60
2023/06/12 14:40:59;;;;;;;7.20;5.50;;;;;;;;;;5113221;28;20235;-59
2023/06/12 14:43:26;;;;;;;8.37;5.47;;;;;;;;;;5114935;27;20031;-60
2023/06/12 14:45:52;;;;;;;16.60;4.97;;;;;;;;;;5123040;27;20036;-60
2023/06/12 14:48:19;;;;;;;6.50;4.68;;;;;;;;;;5109859;27;20098;-60
2023/06/12 14:50:46;;;;;;;6.10;4.00;;;;;;;;;;5108385;28;20100;-60
2023/06/12 14:53:13;;;;;;;11.50;5.18;;;;;;;;;;5117878;27;20482;-60
2023/06/12 14:55:42;;;;;;;11.20;4.80;;;;;;;;;;5128795;27;20041;-60